createdAt,value
2019-05-07T00:00:32.921Z,1009.43
2019-05-07T00:01:37.569Z,1009.44
2019-05-07T00:02:43.081Z,1009.47
2019-05-07T00:03:48.593Z,1009.42
2019-05-07T00:04:54.104Z,1009.46
2019-05-07T00:05:59.618Z,1009.44
2019-05-07T00:07:05.120Z,1009.41
2019-05-07T00:08:12.174Z,1009.39
2019-05-07T00:09:16.142Z,1009.42
2019-05-07T00:10:21.850Z,1009.41
2019-05-07T00:11:27.156Z,1009.42
2019-05-07T00:12:32.667Z,1009.41
2019-05-07T00:13:38.180Z,1009.48
2019-05-07T00:14:57.929Z,1009.46
2019-05-07T00:15:49.198Z,1009.43
2019-05-07T00:16:54.706Z,1009.46
2019-05-07T00:18:00.215Z,1009.49
2019-05-07T00:19:05.714Z,1009.44
2019-05-07T00:20:12.795Z,1009.42
2019-05-07T00:21:16.740Z,1009.42
2019-05-07T00:22:22.876Z,1009.40
2019-05-07T00:23:27.754Z,1009.41
2019-05-07T00:24:33.343Z,1009.42
2019-05-07T00:25:38.779Z,1009.36
2019-05-07T00:26:44.286Z,1009.38
2019-05-07T00:27:52.177Z,1009.38
2019-05-07T00:28:55.306Z,1009.36
2019-05-07T00:30:02.900Z,1009.37
2019-05-07T00:31:06.322Z,1009.37
2019-05-07T00:32:12.193Z,1009.37
2019-05-07T00:33:17.337Z,1009.34
2019-05-07T00:34:22.848Z,1009.34
2019-05-07T00:35:28.357Z,1009.34
2019-05-07T00:36:33.890Z,1009.34
2019-05-07T00:37:39.383Z,1009.31
2019-05-07T00:38:44.883Z,1009.34
2019-05-07T00:39:50.390Z,1009.31
2019-05-07T00:40:55.901Z,1009.29
2019-05-07T00:42:03.051Z,1009.29
2019-05-07T00:43:06.913Z,1009.29
2019-05-07T00:44:13.554Z,1009.26
2019-05-07T00:45:20.647Z,1009.29
2019-05-07T00:46:23.444Z,1009.27
2019-05-07T00:47:28.963Z,1009.28
2019-05-07T00:48:34.458Z,1009.25
2019-05-07T00:49:39.971Z,1009.30
2019-05-07T00:50:45.478Z,1009.26
2019-05-07T00:51:51.917Z,1009.29
2019-05-07T00:52:56.505Z,1009.31
2019-05-07T00:54:02.859Z,1009.27
2019-05-07T00:55:07.517Z,1009.30
2019-05-07T00:56:13.035Z,1009.28
2019-05-07T00:57:18.535Z,1009.30
2019-05-07T00:58:26.667Z,1009.33
2019-05-07T00:59:29.559Z,1009.29
2019-05-07T01:00:35.071Z,1009.31
2019-05-07T01:01:40.572Z,1009.31
2019-05-07T01:02:46.086Z,1009.27
2019-05-07T01:03:53.393Z,1009.28
2019-05-07T01:04:57.104Z,1009.29
2019-05-07T01:06:02.609Z,1009.30
2019-05-07T01:07:08.117Z,1009.31
2019-05-07T01:08:13.628Z,1009.28
2019-05-07T01:09:19.142Z,1009.29
2019-05-07T01:10:24.646Z,1009.27
2019-05-07T01:11:30.155Z,1009.30
2019-05-07T01:12:35.665Z,1009.27
2019-05-07T01:13:43.186Z,1009.28
2019-05-07T01:14:46.692Z,1009.30
2019-05-07T01:15:53.154Z,1009.26
2019-05-07T01:16:57.693Z,1009.27
2019-05-07T01:18:03.217Z,1009.28
2019-05-07T01:19:08.721Z,1009.24
2019-05-07T01:20:14.221Z,1009.27
2019-05-07T01:21:19.734Z,1009.28
2019-05-07T01:22:25.251Z,1009.27
2019-05-07T01:23:32.205Z,1009.26
2019-05-07T01:24:36.263Z,1009.25
2019-05-07T01:25:43.075Z,1009.23
2019-05-07T01:26:47.279Z,1009.25
2019-05-07T01:27:53.286Z,1009.31
2019-05-07T01:28:58.299Z,1009.28
2019-05-07T01:30:03.813Z,1009.30
2019-05-07T01:31:09.319Z,1009.29
2019-05-07T01:32:14.820Z,1009.34
2019-05-07T01:33:22.649Z,1009.31
2019-05-07T01:34:25.845Z,1009.32
2019-05-07T01:35:32.709Z,1009.30
2019-05-07T01:36:36.854Z,1009.30
2019-05-07T01:37:42.367Z,1009.33
2019-05-07T01:38:47.879Z,1009.34
2019-05-07T01:39:53.382Z,1009.31
2019-05-07T01:40:58.894Z,1009.31
2019-05-07T01:42:04.415Z,1009.32
2019-05-07T01:43:11.946Z,1009.35
2019-05-07T01:44:15.416Z,1009.32
2019-05-07T01:45:22.440Z,1009.35
2019-05-07T01:46:26.443Z,1009.30
2019-05-07T01:47:33.210Z,1009.32
2019-05-07T01:48:37.457Z,1009.32
2019-05-07T01:49:42.965Z,1009.30
2019-05-07T01:50:48.472Z,1009.30
2019-05-07T01:51:53.982Z,1009.27
2019-05-07T01:52:59.500Z,1009.27
2019-05-07T01:54:05.005Z,1009.27
2019-05-07T01:55:12.820Z,1009.28
2019-05-07T01:56:16.018Z,1009.28
2019-05-07T01:57:23.180Z,1009.25
2019-05-07T01:58:27.038Z,1009.29
2019-05-07T01:59:32.563Z,1009.29
2019-05-07T02:00:38.047Z,1009.29
2019-05-07T02:01:43.566Z,1009.29
2019-05-07T02:02:49.072Z,1009.28
2019-05-07T02:03:54.592Z,1009.30
2019-05-07T02:05:00.096Z,1009.31
2019-05-07T02:06:05.595Z,1009.29
2019-05-07T02:07:11.970Z,1009.26
2019-05-07T02:08:16.610Z,1009.28
2019-05-07T02:09:22.549Z,1009.30
2019-05-07T02:10:27.630Z,1009.30
2019-05-07T02:11:33.147Z,1009.30
2019-05-07T02:12:38.650Z,1009.31
2019-05-07T02:13:44.164Z,1009.34
2019-05-07T02:14:49.681Z,1009.28
2019-05-07T02:16:01.305Z,1009.31
2019-05-07T02:17:02.742Z,1009.29
2019-05-07T02:18:06.196Z,1009.31
2019-05-07T02:19:12.700Z,1009.35
2019-05-07T02:20:17.207Z,1009.31
2019-05-07T02:21:22.724Z,1009.29
2019-05-07T02:22:28.225Z,1009.33
2019-05-07T02:23:33.739Z,1009.31
2019-05-07T02:24:39.247Z,1009.28
2019-05-07T02:25:44.757Z,1009.29
2019-05-07T02:26:52.066Z,1009.27
2019-05-07T02:27:55.771Z,1009.29
2019-05-07T02:29:02.780Z,1009.32
2019-05-07T02:30:06.792Z,1009.27
2019-05-07T02:31:14.962Z,1009.24
2019-05-07T02:32:17.806Z,1009.28
2019-05-07T02:33:23.320Z,1009.28
2019-05-07T02:34:28.829Z,1009.28
2019-05-07T02:35:34.338Z,1009.26
2019-05-07T02:36:42.955Z,1009.25
2019-05-07T02:37:50.811Z,1009.25
2019-05-07T02:38:53.057Z,1009.26
2019-05-07T02:39:56.369Z,1009.30
2019-05-07T02:41:02.940Z,1009.26
2019-05-07T02:42:07.384Z,1009.26
2019-05-07T02:43:14.035Z,1009.24
2019-05-07T02:44:18.413Z,1009.28
2019-05-07T02:45:24.160Z,1009.31
2019-05-07T02:46:31.992Z,1009.30
2019-05-07T02:47:34.937Z,1009.29
2019-05-07T02:48:42.918Z,1009.31
2019-05-07T02:49:45.952Z,1009.28
2019-05-07T02:50:53.903Z,1009.30
2019-05-07T02:51:56.964Z,1009.29
2019-05-07T02:53:04.182Z,1009.31
2019-05-07T02:54:07.993Z,1009.29
2019-05-07T02:55:13.593Z,1009.25
2019-05-07T02:56:18.994Z,1009.27
2019-05-07T02:57:24.503Z,1009.26
2019-05-07T02:58:32.879Z,1009.25
2019-05-07T02:59:35.523Z,1009.28
2019-05-07T03:00:43.410Z,1009.21
2019-05-07T03:01:46.538Z,1009.25
2019-05-07T03:02:53.122Z,1009.24
2019-05-07T03:03:57.557Z,1009.24
2019-05-07T03:05:05.116Z,1009.26
2019-05-07T03:06:08.572Z,1009.22
2019-05-07T03:07:14.084Z,1009.24
2019-05-07T03:08:23.499Z,1009.24
2019-05-07T03:09:25.100Z,1009.25
2019-05-07T03:10:33.606Z,1009.20
2019-05-07T03:11:36.132Z,1009.19
2019-05-07T03:12:42.991Z,1009.23
2019-05-07T03:13:47.129Z,1009.19
2019-05-07T03:14:53.756Z,1009.23
2019-05-07T03:15:58.194Z,1009.19
2019-05-07T03:17:03.657Z,1009.23
2019-05-07T03:18:09.168Z,1009.18
2019-05-07T03:19:14.672Z,1009.21
2019-05-07T03:20:22.830Z,1009.18
2019-05-07T03:21:25.689Z,1009.20
2019-05-07T03:22:33.801Z,1009.18
2019-05-07T03:23:36.706Z,1009.20
2019-05-07T03:24:43.452Z,1009.15
2019-05-07T03:25:47.754Z,1009.20
2019-05-07T03:26:53.686Z,1009.16
2019-05-07T03:27:58.738Z,1009.16
2019-05-07T03:29:04.259Z,1009.16
2019-05-07T03:30:09.771Z,1009.16
2019-05-07T03:31:17.062Z,1009.18
2019-05-07T03:32:26.662Z,1009.16
2019-05-07T03:33:27.048Z,1009.14
2019-05-07T03:34:36.681Z,1009.14
2019-05-07T03:35:38.238Z,1009.14
2019-05-07T03:36:47.746Z,1009.20
2019-05-07T03:37:48.313Z,1009.17
2019-05-07T03:38:53.903Z,1009.11
2019-05-07T03:39:59.353Z,1009.13
2019-05-07T03:41:04.836Z,1009.15
2019-05-07T03:42:13.108Z,1009.14
2019-05-07T03:43:15.851Z,1009.12
2019-05-07T03:44:23.839Z,1009.14
2019-05-07T03:45:26.866Z,1009.11
2019-05-07T03:46:33.651Z,1009.13
2019-05-07T03:47:37.887Z,1009.14
2019-05-07T03:48:44.259Z,1009.14
2019-05-07T03:49:48.898Z,1009.15
2019-05-07T03:50:54.405Z,1009.13
2019-05-07T03:51:59.910Z,1009.16
2019-05-07T03:53:05.427Z,1009.16
2019-05-07T03:54:10.931Z,1009.21
2019-05-07T03:55:16.459Z,1009.25
2019-05-07T03:56:23.648Z,1009.23
2019-05-07T03:57:27.447Z,1009.23
2019-05-07T03:58:33.994Z,1009.20
2019-05-07T03:59:38.464Z,1009.18
2019-05-07T04:00:44.497Z,1009.20
2019-05-07T04:01:49.480Z,1009.16
2019-05-07T04:02:54.996Z,1009.17
2019-05-07T04:04:03.579Z,1009.16
2019-05-07T04:05:06.018Z,1009.13
2019-05-07T04:06:12.845Z,1009.17
2019-05-07T04:07:17.027Z,1009.16
2019-05-07T04:08:23.645Z,1009.15
2019-05-07T04:09:28.057Z,1009.18
2019-05-07T04:10:34.022Z,1009.17
2019-05-07T04:11:39.064Z,1009.15
2019-05-07T04:12:44.651Z,1009.15
2019-05-07T04:13:53.251Z,1009.12
2019-05-07T04:14:55.586Z,1009.10
2019-05-07T04:16:03.986Z,1009.14
2019-05-07T04:17:21.444Z,1009.14
2019-05-07T04:18:13.183Z,1009.15
2019-05-07T04:19:17.618Z,1009.14
2019-05-07T04:20:23.953Z,1009.14
2019-05-07T04:21:28.635Z,1009.13
2019-05-07T04:22:34.712Z,1009.17
2019-05-07T04:23:39.643Z,1009.17
2019-05-07T04:24:45.157Z,1009.15
2019-05-07T04:25:53.050Z,1009.16
2019-05-07T04:26:56.193Z,1009.17
2019-05-07T04:28:03.846Z,1009.17
2019-05-07T04:29:07.193Z,1009.19
2019-05-07T04:30:13.179Z,1009.18
2019-05-07T04:31:18.199Z,1009.16
2019-05-07T04:32:23.722Z,1009.17
2019-05-07T04:33:29.222Z,1009.17
2019-05-07T04:34:34.729Z,1009.17
2019-05-07T04:35:43.059Z,1009.23
2019-05-07T04:36:45.746Z,1009.19
2019-05-07T04:37:53.306Z,1009.20
2019-05-07T04:38:56.758Z,1009.21
2019-05-07T04:40:03.217Z,1009.19
2019-05-07T04:41:07.778Z,1009.18
2019-05-07T04:42:13.468Z,1009.20
2019-05-07T04:43:18.796Z,1009.22
2019-05-07T04:44:24.316Z,1009.20
2019-05-07T04:45:29.806Z,1009.20
2019-05-07T04:46:35.326Z,1009.21
2019-05-07T04:47:44.228Z,1009.27
2019-05-07T04:48:46.337Z,1009.21
2019-05-07T04:49:53.416Z,1009.21
2019-05-07T04:50:57.354Z,1009.24
2019-05-07T04:52:03.920Z,1009.20
2019-05-07T04:53:08.370Z,1009.17
2019-05-07T04:54:13.878Z,1009.15
2019-05-07T04:55:19.387Z,1009.14
2019-05-07T04:56:24.893Z,1009.18
2019-05-07T04:57:32.829Z,1009.13
2019-05-07T04:58:35.914Z,1009.16
2019-05-07T04:59:42.797Z,1009.16
2019-05-07T05:00:46.926Z,1009.16
2019-05-07T05:01:53.240Z,1009.13
2019-05-07T05:02:57.961Z,1009.15
2019-05-07T05:04:21.104Z,1009.15
2019-05-07T05:05:08.953Z,1009.12
2019-05-07T05:06:14.472Z,1009.12
2019-05-07T05:07:22.324Z,1009.09
2019-05-07T05:08:25.482Z,1009.08
2019-05-07T05:09:33.000Z,1009.02
2019-05-07T05:10:36.505Z,1009.04
2019-05-07T05:11:43.848Z,1009.10
2019-05-07T05:12:47.514Z,1009.03
2019-05-07T05:13:53.402Z,1009.07
2019-05-07T05:14:58.531Z,1009.12
2019-05-07T05:16:04.042Z,1009.11
2019-05-07T05:17:09.557Z,1009.10
2019-05-07T05:18:15.053Z,1009.10
2019-05-07T05:19:22.852Z,1009.14
2019-05-07T05:20:26.076Z,1009.12
2019-05-07T05:21:32.234Z,1009.12
2019-05-07T05:22:37.088Z,1009.15
2019-05-07T05:23:42.599Z,1009.12
2019-05-07T05:24:48.103Z,1009.12
2019-05-07T05:25:53.621Z,1009.09
2019-05-07T05:26:59.126Z,1009.12
2019-05-07T05:28:04.638Z,1009.07
2019-05-07T05:29:12.134Z,1009.10
2019-05-07T05:30:15.651Z,1009.11
2019-05-07T05:31:22.303Z,1009.10
2019-05-07T05:32:26.670Z,1009.11
2019-05-07T05:33:32.446Z,1009.11
2019-05-07T05:34:37.680Z,1009.10
2019-05-07T05:35:43.350Z,1009.11
2019-05-07T05:36:48.697Z,1009.09
2019-05-07T05:37:54.213Z,1009.09
2019-05-07T05:38:59.719Z,1009.03
2019-05-07T05:40:08.812Z,1009.03
2019-05-07T05:41:12.247Z,1009.04
2019-05-07T05:42:16.253Z,1009.03
2019-05-07T05:43:22.387Z,1009.11
2019-05-07T05:44:27.267Z,1009.11
2019-05-07T05:45:33.486Z,1009.13
2019-05-07T05:46:38.270Z,1009.10
2019-05-07T05:47:45.013Z,1009.08
2019-05-07T05:48:49.298Z,1009.11
2019-05-07T05:49:54.804Z,1009.12
2019-05-07T05:51:02.550Z,1009.13
2019-05-07T05:53:59.538Z,1009.17
2019-05-07T05:55:05.486Z,1009.17
2019-05-07T05:56:11.834Z,1009.19
2019-05-07T05:57:35.191Z,1009.24
2019-05-07T05:58:52.614Z,1009.20
2019-05-07T05:59:25.311Z,1009.23
2019-05-07T06:00:35.317Z,1009.19
2019-05-07T06:01:28.869Z,1009.18
2019-05-07T06:03:19.155Z,1009.21
2019-05-07T06:04:02.921Z,1009.21
2019-05-07T06:05:41.535Z,1009.17
2019-05-07T06:07:08.017Z,1009.20
2019-05-07T06:08:17.962Z,1009.20
2019-05-07T06:09:22.894Z,1009.18
2019-05-07T06:11:02.827Z,1009.18
2019-05-07T06:12:22.494Z,1009.10
2019-05-07T06:13:23.936Z,1009.15
2019-05-07T06:14:30.135Z,1009.15
2019-05-07T06:15:52.203Z,1009.16
2019-05-07T06:16:29.588Z,1009.15
2019-05-07T06:17:39.842Z,1009.16
2019-05-07T06:18:49.061Z,1009.15
2019-05-07T06:20:12.297Z,1009.18
2019-05-07T06:21:03.113Z,1009.18
2019-05-07T06:21:56.051Z,1009.18
2019-05-07T06:23:27.587Z,1009.19
2019-05-07T06:24:03.329Z,1009.20
2019-05-07T06:25:15.101Z,1009.17
2019-05-07T06:26:32.421Z,1009.18
2019-05-07T06:27:13.695Z,1009.19
2019-05-07T06:28:46.257Z,1009.22
2019-05-07T06:29:37.459Z,1009.19
2019-05-07T06:30:33.836Z,1009.22
2019-05-07T06:31:53.652Z,1009.22
2019-05-07T06:33:04.821Z,1009.26
2019-05-07T06:33:55.825Z,1009.25
2019-05-07T06:35:51.989Z,1009.24
2019-05-07T06:36:21.862Z,1009.26
2019-05-07T06:37:32.082Z,1009.26
2019-05-07T06:38:35.274Z,1009.23
2019-05-07T06:39:36.711Z,1009.21
2019-05-07T06:41:00.063Z,1009.24
2019-05-07T06:42:02.099Z,1009.19
2019-05-07T06:43:00.488Z,1009.23
2019-05-07T06:43:54.145Z,1009.19
2019-05-07T06:45:13.628Z,1009.20
2019-05-07T06:46:07.168Z,1009.19
2019-05-07T06:47:22.189Z,1009.20
2019-05-07T06:48:32.776Z,1009.21
2019-05-07T06:49:32.271Z,1009.22
2019-05-07T06:50:58.701Z,1009.23
2019-05-07T06:51:37.101Z,1009.21
2019-05-07T06:52:42.427Z,1009.21
2019-05-07T06:53:43.053Z,1009.20
2019-05-07T06:54:47.983Z,1009.20
2019-05-07T06:56:05.084Z,1009.19
2019-05-07T06:57:18.608Z,1009.18
2019-05-07T06:58:18.716Z,1009.21
2019-05-07T06:59:07.978Z,1009.15
2019-05-07T07:00:22.517Z,1009.18
2019-05-07T07:01:33.994Z,1009.16
2019-05-07T07:02:48.543Z,1009.17
2019-05-07T07:03:47.527Z,1009.17
2019-05-07T07:04:42.349Z,1009.20
2019-05-07T07:05:57.575Z,1009.16
2019-05-07T07:06:48.882Z,1009.18
2019-05-07T07:08:02.249Z,1009.18
2019-05-07T07:09:13.061Z,1009.19
2019-05-07T07:10:27.500Z,1009.17
2019-05-07T07:11:17.985Z,1009.20
2019-05-07T07:12:25.859Z,1009.24
2019-05-07T07:13:27.430Z,1009.19
2019-05-07T07:14:33.582Z,1009.17
2019-05-07T07:15:52.053Z,1009.18
2019-05-07T07:16:39.423Z,1009.17
2019-05-07T07:17:52.362Z,1009.17
2019-05-07T07:18:55.918Z,1009.14
2019-05-07T07:20:09.143Z,1009.13
2019-05-07T07:21:21.839Z,1009.13
2019-05-07T07:22:15.845Z,1009.11
2019-05-07T07:23:14.075Z,1009.11
2019-05-07T07:24:22.114Z,1009.11
2019-05-07T07:25:34.981Z,1009.09
2019-05-07T07:26:42.163Z,1009.08
2019-05-07T07:27:45.948Z,1009.07
2019-05-07T07:28:49.541Z,1009.03
2019-05-07T07:29:52.348Z,1009.02
2019-05-07T07:31:02.271Z,1009.01
2019-05-07T07:32:12.707Z,1009.03
2019-05-07T07:33:12.218Z,1008.98
2019-05-07T07:34:22.876Z,1008.99
2019-05-07T07:35:22.440Z,1008.95
2019-05-07T07:36:24.512Z,1008.94
2019-05-07T07:37:33.223Z,1008.94
2019-05-07T07:38:39.059Z,1008.94
2019-05-07T07:39:29.647Z,1008.93
2019-05-07T07:40:45.219Z,1008.92
2019-05-07T07:41:49.014Z,1008.91
2019-05-07T07:42:58.243Z,1008.96
2019-05-07T07:44:06.029Z,1008.89
2019-05-07T07:45:07.981Z,1008.89
2019-05-07T07:46:06.051Z,1008.92
2019-05-07T07:47:15.878Z,1008.93
2019-05-07T07:48:24.096Z,1008.89
2019-05-07T07:49:28.896Z,1008.91
2019-05-07T07:50:42.725Z,1008.87
2019-05-07T07:51:38.104Z,1008.88
2019-05-07T07:52:44.996Z,1008.85
2019-05-07T07:53:55.755Z,1008.85
2019-05-07T07:54:54.646Z,1008.82
2019-05-07T07:56:06.828Z,1008.81
2019-05-07T07:57:08.677Z,1008.82
2019-05-07T07:58:23.331Z,1008.81
2019-05-07T07:59:32.787Z,1008.82
2019-05-07T08:00:29.675Z,1008.80
2019-05-07T08:01:32.975Z,1008.81
2019-05-07T08:02:39.543Z,1008.82
2019-05-07T08:03:33.044Z,1008.78
2019-05-07T08:04:46.714Z,1008.76
2019-05-07T08:06:02.168Z,1008.81
2019-05-07T08:06:55.643Z,1008.76
2019-05-07T08:07:55.137Z,1008.73
2019-05-07T08:09:02.409Z,1008.76
2019-05-07T08:10:14.602Z,1008.72
2019-05-07T08:11:22.803Z,1008.75
2019-05-07T08:12:18.203Z,1008.75
2019-05-07T08:13:29.471Z,1008.74
2019-05-07T08:14:32.319Z,1008.75
2019-05-07T08:15:37.985Z,1008.76
2019-05-07T08:16:49.054Z,1008.71
2019-05-07T08:17:56.330Z,1008.75
2019-05-07T08:18:54.108Z,1008.73
2019-05-07T08:19:55.318Z,1008.72
2019-05-07T08:21:08.130Z,1008.70
2019-05-07T08:22:18.475Z,1008.68
2019-05-07T08:23:14.999Z,1008.65
2019-05-07T08:24:24.125Z,1008.70
2019-05-07T08:25:32.106Z,1008.69
2019-05-07T08:26:34.277Z,1008.68
2019-05-07T08:27:33.776Z,1008.69
2019-05-07T08:28:41.857Z,1008.60
2019-05-07T08:29:45.052Z,1008.62
2019-05-07T08:30:58.566Z,1008.66
2019-05-07T08:31:56.218Z,1008.65
2019-05-07T08:33:14.624Z,1008.63
2019-05-07T08:34:03.912Z,1008.63
2019-05-07T08:35:14.110Z,1008.65
2019-05-07T08:36:32.963Z,1008.65
2019-05-07T08:37:33.533Z,1008.62
2019-05-07T08:39:02.595Z,1008.66
2019-05-07T08:39:43.887Z,1008.66
2019-05-07T08:40:48.875Z,1008.62
2019-05-07T08:41:53.937Z,1008.61
2019-05-07T08:43:04.894Z,1008.65
2019-05-07T08:44:11.635Z,1008.63
2019-05-07T08:45:03.023Z,1008.66
2019-05-07T08:46:14.033Z,1008.62
2019-05-07T08:47:22.849Z,1008.60
2019-05-07T08:48:34.834Z,1008.58
2019-05-07T08:49:53.685Z,1008.55
2019-05-07T08:50:37.613Z,1008.55
2019-05-07T08:51:37.311Z,1008.56
2019-05-07T08:52:55.443Z,1008.54
2019-05-07T08:53:58.829Z,1008.58
2019-05-07T08:55:07.543Z,1008.55
2019-05-07T08:56:19.630Z,1008.56
2019-05-07T08:57:03.150Z,1008.53
2019-05-07T08:58:17.593Z,1008.49
2019-05-07T08:59:14.232Z,1008.53
2019-05-07T09:00:22.281Z,1008.51
2019-05-07T09:01:44.248Z,1008.50
2019-05-07T09:03:26.461Z,1008.52
2019-05-07T09:03:54.391Z,1008.48
2019-05-07T09:04:58.190Z,1008.50
2019-05-07T09:06:37.005Z,1008.54
2019-05-07T09:07:03.219Z,1008.51
2019-05-07T09:08:25.150Z,1008.53
2019-05-07T09:09:32.662Z,1008.51
2019-05-07T09:10:42.372Z,1008.47
2019-05-07T09:11:54.351Z,1008.47
2019-05-07T09:12:43.600Z,1008.49
2019-05-07T09:14:05.929Z,1008.51
2019-05-07T09:14:44.022Z,1008.48
2019-05-07T09:16:42.561Z,1008.53
2019-05-07T09:17:34.113Z,1008.50
2019-05-07T09:19:15.079Z,1008.48
2019-05-07T09:19:48.297Z,1008.45
2019-05-07T09:21:22.769Z,1008.45
2019-05-07T09:22:33.327Z,1008.44
2019-05-07T09:23:28.527Z,1008.41
2019-05-07T09:24:20.026Z,1008.39
2019-05-07T09:25:42.764Z,1008.40
2019-05-07T09:26:52.353Z,1008.39
2019-05-07T09:27:30.082Z,1008.35
2019-05-07T09:28:28.654Z,1008.42
2019-05-07T09:29:45.463Z,1008.42
2019-05-07T09:31:02.768Z,1008.38
2019-05-07T09:32:12.196Z,1008.37
2019-05-07T09:32:43.537Z,1008.36
2019-05-07T09:33:59.205Z,1008.40
2019-05-07T09:35:17.849Z,1008.35
2019-05-07T09:36:17.242Z,1008.34
2019-05-07T09:37:28.040Z,1008.38
2019-05-07T09:38:32.600Z,1008.36
2019-05-07T09:39:32.727Z,1008.35
2019-05-07T09:40:42.010Z,1008.35
2019-05-07T09:41:52.808Z,1008.34
2019-05-07T09:42:47.283Z,1008.33
2019-05-07T09:43:42.429Z,1008.32
2019-05-07T09:44:56.655Z,1008.28
2019-05-07T09:46:02.837Z,1008.29
2019-05-07T09:47:07.690Z,1008.30
2019-05-07T09:48:14.473Z,1008.29
2019-05-07T09:49:22.129Z,1008.29
2019-05-07T09:50:15.086Z,1008.25
2019-05-07T09:51:31.670Z,1008.24
2019-05-07T09:52:32.119Z,1008.22
2019-05-07T09:53:42.380Z,1008.25
2019-05-07T09:54:42.683Z,1008.20
2019-05-07T09:55:47.879Z,1008.25
2019-05-07T09:56:58.756Z,1008.24
2019-05-07T09:57:52.721Z,1008.22
2019-05-07T09:59:12.688Z,1008.18
2019-05-07T10:00:14.143Z,1008.18
2019-05-07T10:01:19.773Z,1008.19
2019-05-07T10:02:22.614Z,1008.15
2019-05-07T10:03:23.264Z,1008.15
2019-05-07T10:04:32.553Z,1008.16
2019-05-07T10:05:51.802Z,1008.14
2019-05-07T10:06:45.816Z,1008.13
2019-05-07T10:07:52.571Z,1008.12
2019-05-07T10:08:54.121Z,1008.08
2019-05-07T10:10:11.897Z,1008.10
2019-05-07T10:11:12.122Z,1008.10
2019-05-07T10:12:16.458Z,1008.07
2019-05-07T10:13:12.167Z,1008.03
2019-05-07T10:14:29.585Z,1008.04
2019-05-07T10:15:28.259Z,1008.00
2019-05-07T10:16:31.650Z,1008.02
2019-05-07T10:17:36.682Z,1008.02
2019-05-07T10:18:42.824Z,1008.01
2019-05-07T10:19:47.233Z,1008.02
2019-05-07T10:20:57.582Z,1008.03
2019-05-07T10:21:55.234Z,1007.99
2019-05-07T10:23:17.463Z,1007.96
2019-05-07T10:24:22.084Z,1008.01
2019-05-07T10:25:19.624Z,1008.00
2019-05-07T10:26:23.014Z,1007.97
2019-05-07T10:27:37.867Z,1007.98
2019-05-07T10:28:32.010Z,1007.98
2019-05-07T10:29:48.019Z,1007.99
2019-05-07T10:30:53.963Z,1008.00
2019-05-07T10:31:47.315Z,1007.98
2019-05-07T10:32:54.185Z,1007.95
2019-05-07T10:34:03.917Z,1007.97
2019-05-07T10:35:03.107Z,1007.95
2019-05-07T10:36:09.054Z,1007.94
2019-05-07T10:37:24.631Z,1007.96
2019-05-07T10:38:32.208Z,1007.96
2019-05-07T10:39:30.063Z,1007.94
2019-05-07T10:40:35.191Z,1007.93
2019-05-07T10:41:46.767Z,1007.95
2019-05-07T10:42:45.858Z,1007.97
2019-05-07T10:43:45.761Z,1007.98
2019-05-07T10:45:02.931Z,1007.96
2019-05-07T10:46:02.352Z,1007.97
2019-05-07T10:47:07.286Z,1007.98
2019-05-07T10:48:17.734Z,1007.97
2019-05-07T10:49:14.572Z,1007.95
2019-05-07T10:50:34.606Z,1007.95
2019-05-07T10:51:33.115Z,1007.93
2019-05-07T10:52:38.040Z,1007.92
2019-05-07T10:53:36.508Z,1007.94
2019-05-07T10:54:56.782Z,1007.91
2019-05-07T10:55:51.581Z,1007.93
2019-05-07T10:57:00.085Z,1007.91
2019-05-07T10:58:02.899Z,1007.89
2019-05-07T10:59:12.369Z,1007.94
2019-05-07T11:00:12.340Z,1007.87
2019-05-07T11:01:17.622Z,1007.85
2019-05-07T11:02:24.896Z,1007.82
2019-05-07T11:03:21.842Z,1007.82
2019-05-07T11:04:39.045Z,1007.81
2019-05-07T11:05:42.940Z,1007.81
2019-05-07T11:06:54.417Z,1007.80
2019-05-07T11:07:56.676Z,1007.78
2019-05-07T11:08:56.065Z,1007.78
2019-05-07T11:10:07.550Z,1007.79
2019-05-07T11:11:07.867Z,1007.74
2019-05-07T11:12:31.905Z,1007.69
2019-05-07T11:13:19.341Z,1007.70
2019-05-07T11:14:29.493Z,1007.70
2019-05-07T11:15:32.410Z,1007.68
2019-05-07T11:16:40.152Z,1007.61
2019-05-07T11:17:37.500Z,1007.64
2019-05-07T11:18:52.247Z,1007.66
2019-05-07T11:19:54.299Z,1007.61
2019-05-07T11:20:53.328Z,1007.61
2019-05-07T11:22:00.664Z,1007.58
2019-05-07T11:23:11.013Z,1007.56
2019-05-07T11:24:15.420Z,1007.55
2019-05-07T11:25:17.990Z,1007.54
2019-05-07T11:26:22.199Z,1007.52
2019-05-07T11:27:29.983Z,1007.51
2019-05-07T11:28:37.577Z,1007.52
2019-05-07T11:29:43.824Z,1007.52
2019-05-07T11:30:49.460Z,1007.49
2019-05-07T11:31:58.172Z,1007.47
2019-05-07T11:32:57.054Z,1007.47
2019-05-07T11:34:04.844Z,1007.49
2019-05-07T11:35:00.446Z,1007.48
2019-05-07T11:36:25.139Z,1007.46
2019-05-07T11:37:24.114Z,1007.49
2019-05-07T11:38:24.982Z,1007.52
2019-05-07T11:39:33.761Z,1007.52
2019-05-07T11:40:42.609Z,1007.52
2019-05-07T11:41:54.964Z,1007.53
2019-05-07T11:42:45.350Z,1007.50
2019-05-07T11:43:49.245Z,1007.52
2019-05-07T11:45:02.979Z,1007.49
2019-05-07T11:46:13.022Z,1007.40
2019-05-07T11:47:12.359Z,1007.43
2019-05-07T11:48:18.968Z,1007.42
2019-05-07T11:49:23.787Z,1007.43
2019-05-07T11:50:29.935Z,1007.44
2019-05-07T11:51:37.932Z,1007.44
2019-05-07T11:52:45.925Z,1007.37
2019-05-07T11:53:44.293Z,1007.39
2019-05-07T11:54:45.332Z,1007.39
2019-05-07T11:55:52.228Z,1007.38
2019-05-07T11:56:59.983Z,1007.34
2019-05-07T11:57:59.274Z,1007.38
2019-05-07T11:59:22.048Z,1007.38
2019-05-07T12:00:12.861Z,1007.37
2019-05-07T12:01:23.056Z,1007.34
2019-05-07T12:02:34.220Z,1007.35
2019-05-07T12:03:35.156Z,1007.33
2019-05-07T12:04:42.628Z,1007.33
2019-05-07T12:05:42.262Z,1007.30
2019-05-07T12:06:43.970Z,1007.32
2019-05-07T12:07:46.131Z,1007.30
2019-05-07T12:08:56.585Z,1007.27
2019-05-07T12:10:04.875Z,1007.27
2019-05-07T12:11:18.923Z,1007.26
2019-05-07T12:12:26.811Z,1007.26
2019-05-07T12:13:27.738Z,1007.24
2019-05-07T12:14:31.624Z,1007.27
2019-05-07T12:15:42.815Z,1007.26
2019-05-07T12:16:48.651Z,1007.25
2019-05-07T12:17:48.556Z,1007.26
2019-05-07T12:18:55.506Z,1007.22
2019-05-07T12:19:59.117Z,1007.22
2019-05-07T12:21:16.550Z,1007.22
2019-05-07T12:22:13.669Z,1007.19
2019-05-07T12:23:07.024Z,1007.16
2019-05-07T12:24:19.110Z,1007.17
2019-05-07T12:25:45.024Z,1007.19
2019-05-07T12:26:30.491Z,1007.13
2019-05-07T12:27:32.199Z,1007.14
2019-05-07T12:28:41.855Z,1007.13
2019-05-07T12:29:43.825Z,1007.12
2019-05-07T12:30:54.993Z,1007.12
2019-05-07T12:31:59.002Z,1007.14
2019-05-07T12:32:57.672Z,1007.10
2019-05-07T12:34:19.691Z,1007.14
2019-05-07T12:35:13.453Z,1007.12
2019-05-07T12:36:22.867Z,1007.13
2019-05-07T12:37:26.880Z,1007.16
2019-05-07T12:38:32.520Z,1007.16
2019-05-07T12:39:37.544Z,1007.17
2019-05-07T12:40:41.941Z,1007.14
2019-05-07T12:41:48.824Z,1007.10
2019-05-07T12:42:49.443Z,1007.13
2019-05-07T12:43:56.514Z,1007.14
2019-05-07T12:45:02.302Z,1007.10
2019-05-07T12:46:04.924Z,1007.13
2019-05-07T12:47:15.683Z,1007.12
2019-05-07T12:48:15.692Z,1007.11
2019-05-07T12:49:29.520Z,1007.10
2019-05-07T12:50:29.425Z,1007.03
2019-05-07T12:51:37.476Z,1007.07
2019-05-07T12:52:43.674Z,1007.01
2019-05-07T12:53:43.510Z,1007.03
2019-05-07T12:54:45.328Z,1007.02
2019-05-07T12:55:59.160Z,1007.01
2019-05-07T12:56:56.303Z,1007.01
2019-05-07T12:58:05.009Z,1007.01
2019-05-07T12:59:14.537Z,1006.94
2019-05-07T13:00:14.567Z,1006.90
2019-05-07T13:01:27.570Z,1006.89
2019-05-07T13:02:44.098Z,1006.92
2019-05-07T13:03:42.738Z,1006.89
2019-05-07T13:04:37.304Z,1006.88
2019-05-07T13:05:48.577Z,1006.83
2019-05-07T13:06:44.792Z,1006.84
2019-05-07T13:07:52.693Z,1006.84
2019-05-07T13:09:02.114Z,1006.83
2019-05-07T13:10:08.464Z,1006.80
2019-05-07T13:11:16.084Z,1006.80
2019-05-07T13:12:37.260Z,1006.85
2019-05-07T13:13:36.654Z,1006.80
2019-05-07T13:14:24.575Z,1006.79
2019-05-07T13:15:54.071Z,1006.83
2019-05-07T13:16:46.401Z,1006.82